createdAt,value
2023-03-05T00:01:35.230Z,81.95
2023-03-05T00:04:03.672Z,83.04
2023-03-05T00:06:31.022Z,82.37
2023-03-05T00:08:58.318Z,82.54
2023-03-05T00:11:27.991Z,82.10
2023-03-05T00:13:54.983Z,81.59
2023-03-05T00:16:22.427Z,82.51
2023-03-05T00:18:49.684Z,82.42
2023-03-05T00:21:22.347Z,82.16
2023-03-05T00:23:50.589Z,82.84
2023-03-05T00:26:18.980Z,82.67
2023-03-05T00:28:49.758Z,82.42
2023-03-05T00:31:17.822Z,82.53
2023-03-05T00:33:44.258Z,83.28
2023-03-05T00:36:11.022Z,82.71
2023-03-05T00:38:37.502Z,82.92
2023-03-05T00:41:04.147Z,83.07
2023-03-05T00:43:30.666Z,82.84
2023-03-05T00:45:57.023Z,82.33
2023-03-05T00:48:23.362Z,82.93
2023-03-05T00:50:49.746Z,82.93
2023-03-05T00:53:16.227Z,82.64
2023-03-05T00:55:42.564Z,82.62
2023-03-05T00:58:09.007Z,82.69
2023-03-05T01:00:35.472Z,82.70
2023-03-05T01:03:02.127Z,82.90
2023-03-05T01:05:28.712Z,83.55
2023-03-05T01:07:56.216Z,83.52
2023-03-05T01:10:26.480Z,82.97
2023-03-05T01:12:54.387Z,83.41
2023-03-05T01:15:21.431Z,82.71
2023-03-05T01:17:47.961Z,83.35
2023-03-05T01:20:16.504Z,82.82
2023-03-05T01:22:42.848Z,83.28
2023-03-05T01:25:09.947Z,83.64
2023-03-05T01:27:36.555Z,83.17
2023-03-05T01:30:03.407Z,83.20
2023-03-05T01:32:30.037Z,83.16
2023-03-05T01:34:56.421Z,83.38
2023-03-05T01:37:22.866Z,83.47
2023-03-05T01:39:49.217Z,83.56
2023-03-05T01:42:15.551Z,82.67
2023-03-05T01:45:00.530Z,83.11
2023-03-05T01:47:26.980Z,83.02
2023-03-05T01:49:54.343Z,83.67
2023-03-05T01:52:23.632Z,83.25
2023-03-05T01:54:54.472Z,83.03
2023-03-05T01:57:25.701Z,83.55
2023-03-05T01:59:56.576Z,83.96
2023-03-05T02:02:23.246Z,84.01
2023-03-05T02:04:54.693Z,83.56
2023-03-05T02:07:22.288Z,83.59
2023-03-05T02:09:48.819Z,83.36
2023-03-05T02:12:15.628Z,83.20
2023-03-05T02:14:46.557Z,83.54
2023-03-05T02:17:13.487Z,82.72
2023-03-05T02:20:17.229Z,82.42
2023-03-05T02:22:43.650Z,82.68
2023-03-05T02:25:15.550Z,82.07
2023-03-05T02:27:51.428Z,82.85
2023-03-05T02:30:18.228Z,82.89
2023-03-05T02:32:44.583Z,82.19
2023-03-05T02:35:11.193Z,82.73
2023-03-05T02:37:37.574Z,83.32
2023-03-05T02:40:05.834Z,83.13
2023-03-05T02:42:33.512Z,83.76
2023-03-05T02:45:01.802Z,83.66
2023-03-05T02:47:28.627Z,83.85
2023-03-05T02:49:56.279Z,84.35
2023-03-05T02:52:25.769Z,84.62
2023-03-05T02:54:52.863Z,84.50
2023-03-05T02:57:19.511Z,85.45
2023-03-05T02:59:46.997Z,85.48
2023-03-05T03:02:13.508Z,85.76
2023-03-05T03:04:39.929Z,85.86
2023-03-05T03:07:06.397Z,86.39
2023-03-05T03:09:35.222Z,86.37
2023-03-05T03:12:02.572Z,85.94
2023-03-05T03:14:38.938Z,86.73
2023-03-05T03:17:11.582Z,86.17
2023-03-05T03:19:39.200Z,86.20
2023-03-05T03:22:06.348Z,86.52
2023-03-05T03:24:33.839Z,86.66
2023-03-05T03:27:01.225Z,86.63
2023-03-05T03:29:28.078Z,86.08
2023-03-05T03:31:54.428Z,87.23
2023-03-05T03:34:21.358Z,86.99
2023-03-05T03:36:49.676Z,86.84
2023-03-05T03:39:16.781Z,87.41
2023-03-05T03:41:45.618Z,87.49
2023-03-05T03:44:13.045Z,87.61
2023-03-05T03:46:40.501Z,87.41
2023-03-05T03:49:10.672Z,87.23
2023-03-05T03:51:36.984Z,87.77
2023-03-05T03:54:03.423Z,87.83
2023-03-05T03:56:29.750Z,87.16
2023-03-05T03:58:56.063Z,87.45
2023-03-05T04:01:22.523Z,87.94
2023-03-05T04:03:49.004Z,87.85
2023-03-05T04:06:15.628Z,88.24
2023-03-05T04:08:41.988Z,87.96
2023-03-05T04:11:08.780Z,88.71
2023-03-05T04:13:35.189Z,88.42
2023-03-05T04:16:01.659Z,88.29
2023-03-05T04:18:28.232Z,87.95
2023-03-05T04:20:54.546Z,87.49
2023-03-05T04:23:21.124Z,88.66
2023-03-05T04:25:47.429Z,88.04
2023-03-05T04:28:13.821Z,88.04
2023-03-05T04:30:40.157Z,88.03
2023-03-05T04:33:06.633Z,87.90
2023-03-05T04:35:32.987Z,87.27
2023-03-05T04:37:59.358Z,87.81
2023-03-05T04:40:25.739Z,86.84
2023-03-05T04:42:52.053Z,86.35
2023-03-05T04:45:18.445Z,86.25
2023-03-05T04:47:44.852Z,86.32
2023-03-05T04:50:12.153Z,86.32
2023-03-05T04:52:44.304Z,86.20
2023-03-05T04:55:13.747Z,86.00
2023-03-05T04:57:40.143Z,86.37
2023-03-05T05:00:13.982Z,86.00
2023-03-05T05:02:48.236Z,85.91
2023-03-05T05:05:24.344Z,85.87
2023-03-05T05:07:55.170Z,85.94
2023-03-05T05:10:21.569Z,86.21
2023-03-05T05:12:48.012Z,86.09
2023-03-05T05:15:14.354Z,86.68
2023-03-05T05:17:40.791Z,85.92
2023-03-05T05:20:08.117Z,86.43
2023-03-05T05:22:35.091Z,86.15
2023-03-05T05:25:01.575Z,86.87
2023-03-05T05:27:27.977Z,87.25
2023-03-05T05:29:54.379Z,87.10
2023-03-05T05:32:24.017Z,87.20
2023-03-05T05:34:58.273Z,87.14
2023-03-05T05:37:26.004Z,87.18
2023-03-05T05:39:52.400Z,87.30
2023-03-05T05:42:21.168Z,87.47
2023-03-05T05:44:47.646Z,87.58
2023-03-05T05:47:16.048Z,87.85
2023-03-05T05:49:42.433Z,88.02
2023-03-05T05:52:08.846Z,88.15
2023-03-05T05:54:35.238Z,88.29
2023-03-05T05:57:01.654Z,88.48
2023-03-05T05:59:28.016Z,87.87
2023-03-05T06:01:54.395Z,88.28
2023-03-05T06:04:20.847Z,88.47
2023-03-05T06:06:47.160Z,87.92
2023-03-05T06:09:13.517Z,88.17
2023-03-05T06:11:39.998Z,88.18
2023-03-05T06:14:07.547Z,88.27
2023-03-05T06:16:34.837Z,88.40
2023-03-05T06:19:04.446Z,88.25
2023-03-05T06:21:33.253Z,88.24
2023-03-05T06:24:00.060Z,88.14
2023-03-05T06:26:26.519Z,88.81
2023-03-05T06:28:53.717Z,88.14
2023-03-05T06:31:22.797Z,87.94
2023-03-05T06:33:50.318Z,88.00
2023-03-05T06:36:19.174Z,88.24
2023-03-05T06:38:47.364Z,87.56
2023-03-05T06:41:17.759Z,87.79
2023-03-05T06:43:45.667Z,87.72
2023-03-05T06:46:18.488Z,88.05
2023-03-05T06:48:45.819Z,87.15
2023-03-05T06:51:14.075Z,87.77
2023-03-05T06:53:40.898Z,86.95
2023-03-05T06:56:07.260Z,87.28
2023-03-05T06:58:33.796Z,86.52
2023-03-05T07:01:00.247Z,86.76
2023-03-05T07:03:26.878Z,86.82
2023-03-05T07:05:53.246Z,86.83
2023-03-05T07:08:19.579Z,87.01
2023-03-05T07:10:45.910Z,87.08
2023-03-05T07:13:12.272Z,86.97
2023-03-05T07:15:40.365Z,87.24
2023-03-05T07:18:07.367Z,87.02
2023-03-05T07:20:35.610Z,86.96
2023-03-05T07:23:02.664Z,87.38
2023-03-05T07:25:29.142Z,86.94
2023-03-05T07:27:56.036Z,87.19
2023-03-05T07:30:22.435Z,87.21
2023-03-05T07:32:48.780Z,87.25
2023-03-05T07:35:15.218Z,86.58
2023-03-05T07:37:41.551Z,86.09
2023-03-05T07:40:09.039Z,86.54
2023-03-05T07:42:35.454Z,86.53
2023-03-05T07:45:13.021Z,86.43
2023-03-05T07:47:39.364Z,86.01
2023-03-05T07:50:06.368Z,86.14
2023-03-05T07:52:32.736Z,86.62
2023-03-05T07:54:59.107Z,85.53
2023-03-05T07:57:25.434Z,85.84
2023-03-05T07:59:51.828Z,85.95
2023-03-05T08:02:19.670Z,85.72
2023-03-05T08:04:46.064Z,85.46
2023-03-05T08:07:14.949Z,85.90
2023-03-05T08:09:42.730Z,86.41
2023-03-05T08:12:10.269Z,87.37
2023-03-05T08:14:37.530Z,87.14
2023-03-05T08:17:05.565Z,87.66
2023-03-05T08:19:33.082Z,87.77
2023-03-05T08:21:59.846Z,88.23
2023-03-05T08:24:29.491Z,87.82
2023-03-05T08:26:57.426Z,88.63
2023-03-05T08:29:24.719Z,88.41
2023-03-05T08:31:53.407Z,87.87
2023-03-05T08:34:20.814Z,88.27
2023-03-05T08:36:47.839Z,88.73
2023-03-05T08:39:14.610Z,88.94
2023-03-05T08:41:41.160Z,89.35
2023-03-05T08:44:07.573Z,88.89
2023-03-05T08:46:34.566Z,88.34
2023-03-05T08:49:01.182Z,88.83
2023-03-05T08:51:27.645Z,88.75
2023-03-05T08:53:55.868Z,88.62
2023-03-05T08:56:22.203Z,88.45
2023-03-05T08:58:48.616Z,88.66
2023-03-05T09:01:15.183Z,88.78
2023-03-05T09:03:41.679Z,89.26
2023-03-05T09:06:10.726Z,89.42
2023-03-05T09:08:37.101Z,89.35
2023-03-05T09:11:07.661Z,90.08
2023-03-05T09:13:34.703Z,90.84
2023-03-05T09:16:04.424Z,91.30
2023-03-05T09:18:32.036Z,90.73
2023-03-05T09:20:58.908Z,90.16
2023-03-05T09:23:25.257Z,89.76
2023-03-05T09:25:51.695Z,90.38
2023-03-05T09:28:18.177Z,90.11
2023-03-05T09:30:44.513Z,89.40
2023-03-05T09:33:11.120Z,90.00
2023-03-05T09:35:37.514Z,89.19
2023-03-05T09:38:04.590Z,88.70
2023-03-05T09:40:41.817Z,87.95
2023-03-05T09:43:22.366Z,88.12
2023-03-05T09:46:18.533Z,88.66
2023-03-05T09:48:52.070Z,88.59
2023-03-05T09:51:25.778Z,87.63
2023-03-05T09:54:17.226Z,86.65
2023-03-05T09:57:00.122Z,86.74
2023-03-05T09:59:38.876Z,86.54
2023-03-05T10:02:20.553Z,86.62
2023-03-05T10:04:57.634Z,86.18
2023-03-05T10:07:31.219Z,85.07
2023-03-05T10:10:01.019Z,85.61
2023-03-05T10:12:42.038Z,84.96
2023-03-05T10:15:13.804Z,85.11
2023-03-05T10:17:57.296Z,83.44
2023-03-05T10:20:35.659Z,84.01
2023-03-05T10:23:08.004Z,84.17
2023-03-05T10:25:52.133Z,85.12
2023-03-05T10:28:35.252Z,85.08
2023-03-05T10:31:15.103Z,85.06
2023-03-05T10:34:11.819Z,85.59
2023-03-05T10:37:16.196Z,86.06
2023-03-05T10:40:07.880Z,86.79
2023-03-05T10:42:45.163Z,86.84
2023-03-05T10:45:20.230Z,86.89
2023-03-05T10:47:52.353Z,87.62
2023-03-05T10:50:27.847Z,87.66
2023-03-05T10:53:29.580Z,86.94
2023-03-05T10:55:56.478Z,86.50
2023-03-05T10:58:25.077Z,85.87
2023-03-05T11:01:01.568Z,86.11
2023-03-05T11:03:52.121Z,85.54
2023-03-05T11:06:38.938Z,86.85
2023-03-05T11:09:18.979Z,85.68
2023-03-05T11:12:01.450Z,85.33
2023-03-05T11:14:33.320Z,85.01
2023-03-05T11:17:01.755Z,84.77
2023-03-05T11:19:35.202Z,84.21
2023-03-05T11:22:17.220Z,84.91
2023-03-05T11:24:46.550Z,84.17
2023-03-05T11:27:43.959Z,83.96
2023-03-05T11:30:37.139Z,84.12
2023-03-05T11:33:12.971Z,82.94
2023-03-05T11:35:41.906Z,82.87
2023-03-05T11:38:21.652Z,82.88
2023-03-05T11:40:49.183Z,81.52
2023-03-05T11:43:21.199Z,81.58
2023-03-05T11:45:51.916Z,80.76
2023-03-05T11:48:35.985Z,80.10
2023-03-05T11:51:16.235Z,80.78
2023-03-05T11:53:45.882Z,79.37
2023-03-05T11:56:21.473Z,77.61
2023-03-05T11:59:11.456Z,77.84
2023-03-05T12:01:45.291Z,77.39
2023-03-05T12:04:12.172Z,78.21
2023-03-05T12:06:48.473Z,77.16
2023-03-05T12:09:28.743Z,77.43
2023-03-05T12:12:04.212Z,77.30
2023-03-05T12:14:44.069Z,78.37
2023-03-05T12:17:40.928Z,77.17
2023-03-05T12:20:18.400Z,77.19
2023-03-05T12:22:45.458Z,78.21
2023-03-05T12:25:35.395Z,76.54
2023-03-05T12:28:02.909Z,76.88
2023-03-05T12:30:35.097Z,75.95
2023-03-05T12:33:08.011Z,75.83
2023-03-05T12:35:37.360Z,76.57
2023-03-05T12:38:30.045Z,75.72
2023-03-05T12:41:25.841Z,75.20
2023-03-05T12:44:05.480Z,72.83
2023-03-05T12:46:51.028Z,72.34
2023-03-05T12:49:20.483Z,72.03
2023-03-05T12:51:48.411Z,72.62
2023-03-05T12:54:29.191Z,71.37
2023-03-05T12:56:58.166Z,70.42
2023-03-05T12:59:29.710Z,69.02
2023-03-05T13:02:02.976Z,68.77
2023-03-05T13:04:32.943Z,67.85
2023-03-05T13:07:05.684Z,67.72
2023-03-05T13:09:36.111Z,68.75
2023-03-05T13:12:04.927Z,68.58
2023-03-05T13:14:41.817Z,69.56
2023-03-05T13:17:52.477Z,67.27
2023-03-05T13:20:39.646Z,67.55
2023-03-05T13:23:18.575Z,67.61
2023-03-05T13:25:55.555Z,68.73
2023-03-05T13:28:21.895Z,67.82
2023-03-05T13:30:53.562Z,67.42
2023-03-05T13:33:27.973Z,67.30
2023-03-05T13:35:54.817Z,67.25
2023-03-05T13:38:38.645Z,66.01
2023-03-05T13:41:11.214Z,67.23
2023-03-05T13:43:48.594Z,65.73
2023-03-05T13:46:23.625Z,65.04
2023-03-05T13:48:50.030Z,66.30
2023-03-05T13:51:16.767Z,66.49
2023-03-05T13:53:43.771Z,65.99
2023-03-05T13:56:15.722Z,64.17
2023-03-05T13:58:56.383Z,65.30
2023-03-05T14:01:29.890Z,65.32
2023-03-05T14:04:04.119Z,66.84
2023-03-05T14:06:30.911Z,66.98
2023-03-05T14:09:22.522Z,67.16
2023-03-05T14:11:54.487Z,67.71
2023-03-05T14:14:23.118Z,66.97
2023-03-05T14:16:49.542Z,65.82
2023-03-05T14:19:42.177Z,65.81
2023-03-05T14:22:32.870Z,66.45
2023-03-05T14:24:59.367Z,67.02
2023-03-05T14:27:25.920Z,65.80
2023-03-05T14:29:52.584Z,66.61
2023-03-05T14:32:49.447Z,66.38
2023-03-05T14:35:35.226Z,67.59
2023-03-05T14:38:01.945Z,66.13
2023-03-05T14:40:33.995Z,65.51
2023-03-05T14:43:10.395Z,65.87
2023-03-05T14:45:39.178Z,65.49
2023-03-05T14:48:07.599Z,66.34
2023-03-05T14:50:51.523Z,65.51
2023-03-05T14:53:22.009Z,66.02
2023-03-05T14:55:51.254Z,64.72
2023-03-05T14:58:21.564Z,65.81
2023-03-05T15:00:50.977Z,65.59
2023-03-05T15:03:18.363Z,65.23
2023-03-05T15:05:47.246Z,65.81
2023-03-05T15:08:26.921Z,65.92
2023-03-05T15:10:53.791Z,65.82
2023-03-05T15:13:21.431Z,65.76
2023-03-05T15:15:49.117Z,65.89
2023-03-05T15:18:18.545Z,64.95
2023-03-05T15:20:45.464Z,64.67
2023-03-05T15:23:12.822Z,65.22
2023-03-05T15:25:39.857Z,64.72
2023-03-05T15:28:06.207Z,64.81
2023-03-05T15:30:39.607Z,64.91
2023-03-05T15:33:09.259Z,64.71
2023-03-05T15:35:35.789Z,65.16
2023-03-05T15:38:02.233Z,65.01
2023-03-05T15:40:28.897Z,65.22
2023-03-05T15:42:56.400Z,63.98
2023-03-05T15:45:23.402Z,63.43
2023-03-05T15:47:51.015Z,64.27
2023-03-05T15:50:18.089Z,64.33
2023-03-05T15:52:44.516Z,64.10
2023-03-05T15:55:11.867Z,64.46
2023-03-05T15:57:42.815Z,65.04
2023-03-05T16:00:10.465Z,65.02
2023-03-05T16:02:37.091Z,64.97
2023-03-05T16:05:04.120Z,65.42
2023-03-05T16:07:32.941Z,65.10
2023-03-05T16:09:59.771Z,65.74
2023-03-05T16:12:31.046Z,65.74
2023-03-05T16:14:57.487Z,66.72
2023-03-05T16:17:24.070Z,65.97
2023-03-05T16:19:54.934Z,65.89
2023-03-05T16:22:21.387Z,66.31
2023-03-05T16:24:47.770Z,66.74
2023-03-05T16:27:14.114Z,67.10
2023-03-05T16:29:40.483Z,68.19
2023-03-05T16:32:07.147Z,67.35
2023-03-05T16:34:34.337Z,68.09
2023-03-05T16:37:03.752Z,68.36
2023-03-05T16:39:30.351Z,68.07
2023-03-05T16:41:57.671Z,68.43
2023-03-05T16:44:24.070Z,69.34
2023-03-05T16:46:53.559Z,68.85
2023-03-05T16:49:20.939Z,69.15
2023-03-05T16:51:47.363Z,68.83
2023-03-05T16:54:13.946Z,69.41
2023-03-05T16:56:40.276Z,69.06
2023-03-05T16:59:06.659Z,69.43
2023-03-05T17:01:33.118Z,69.59
2023-03-05T17:04:00.160Z,69.37
2023-03-05T17:06:29.314Z,70.27
2023-03-05T17:08:56.242Z,70.66
2023-03-05T17:11:22.825Z,70.12
2023-03-05T17:13:49.339Z,70.52
2023-03-05T17:16:18.137Z,70.91
2023-03-05T17:18:45.058Z,71.11
2023-03-05T17:21:11.759Z,71.29
2023-03-05T17:23:38.886Z,70.73
2023-03-05T17:26:07.284Z,71.75
2023-03-05T17:28:33.723Z,72.09
2023-03-05T17:31:01.328Z,72.31
2023-03-05T17:33:28.835Z,72.08
2023-03-05T17:35:55.288Z,72.87
2023-03-05T17:38:21.783Z,73.40
2023-03-05T17:40:48.974Z,73.92
2023-03-05T17:43:15.423Z,73.47
2023-03-05T17:45:42.676Z,74.26
2023-03-05T17:48:10.322Z,74.01
2023-03-05T17:50:36.707Z,73.92
2023-03-05T17:53:03.621Z,73.83
2023-03-05T17:55:30.648Z,73.62
2023-03-05T17:57:58.470Z,73.43
2023-03-05T18:00:27.837Z,73.45
2023-03-05T18:02:54.880Z,73.98
2023-03-05T18:05:23.248Z,74.98
2023-03-05T18:07:50.434Z,75.63
2023-03-05T18:10:19.730Z,76.04
2023-03-05T18:12:46.938Z,76.27
2023-03-05T18:15:15.856Z,76.83
2023-03-05T18:17:42.896Z,77.52
2023-03-05T18:20:31.062Z,78.78
2023-03-05T18:22:58.901Z,79.07
2023-03-05T18:25:30.713Z,78.97
2023-03-05T18:28:02.265Z,79.53
2023-03-05T18:30:30.105Z,78.96
2023-03-05T18:32:56.745Z,79.07
2023-03-05T18:35:23.802Z,79.69
2023-03-05T18:37:50.438Z,79.31
2023-03-05T18:40:21.385Z,79.04
2023-03-05T18:42:48.038Z,79.32
2023-03-05T18:45:15.841Z,79.09
2023-03-05T18:47:43.273Z,79.41
2023-03-05T18:50:14.564Z,79.16
2023-03-05T18:52:42.199Z,79.15
2023-03-05T18:55:14.874Z,78.93
2023-03-05T18:57:41.228Z,79.53
2023-03-05T19:00:08.788Z,79.60
2023-03-05T19:02:35.110Z,79.23
2023-03-05T19:05:02.627Z,80.52
2023-03-05T19:07:29.736Z,80.31
2023-03-05T19:09:59.654Z,78.89
2023-03-05T19:12:34.939Z,79.30
2023-03-05T19:15:02.415Z,79.70
2023-03-05T19:17:30.647Z,80.05
2023-03-05T19:19:59.469Z,80.37
2023-03-05T19:22:27.246Z,80.85
2023-03-05T19:24:54.027Z,81.45
2023-03-05T19:27:20.468Z,81.56
2023-03-05T19:29:47.104Z,82.18
2023-03-05T19:32:17.288Z,82.48
2023-03-05T19:34:47.477Z,82.99
2023-03-05T19:37:14.409Z,82.76
2023-03-05T19:39:41.734Z,83.19
2023-03-05T19:42:08.246Z,83.37
2023-03-05T19:44:34.853Z,84.03
2023-03-05T19:47:01.277Z,83.97
2023-03-05T19:49:27.748Z,84.30
2023-03-05T19:51:54.142Z,84.22
2023-03-05T19:54:21.865Z,84.32
2023-03-05T19:56:49.155Z,84.37
2023-03-05T19:59:20.470Z,83.81
2023-03-05T20:01:48.234Z,84.18
2023-03-05T20:04:18.318Z,84.29
2023-03-05T20:06:44.957Z,84.48
2023-03-05T20:09:11.734Z,84.87
2023-03-05T20:11:38.651Z,84.50
2023-03-05T20:14:05.358Z,84.93
2023-03-05T20:16:35.077Z,85.15
2023-03-05T20:19:03.631Z,84.45
2023-03-05T20:21:33.778Z,85.03
2023-03-05T20:24:03.832Z,83.80
2023-03-05T20:26:32.742Z,84.38
2023-03-05T20:28:59.249Z,83.94
2023-03-05T20:31:26.832Z,83.84
2023-03-05T20:33:54.066Z,83.85
2023-03-05T20:36:20.495Z,84.17
2023-03-05T20:38:46.943Z,84.22
2023-03-05T20:41:16.451Z,84.06
2023-03-05T20:43:46.194Z,84.33
2023-03-05T20:46:20.129Z,85.27
2023-03-05T20:48:49.301Z,84.61
2023-03-05T20:51:19.065Z,84.89
2023-03-05T20:53:45.489Z,85.62
2023-03-05T20:56:11.959Z,86.04
2023-03-05T20:58:38.927Z,85.63
2023-03-05T21:01:05.726Z,85.42
2023-03-05T21:03:32.204Z,85.66
2023-03-05T21:05:58.658Z,85.63
2023-03-05T21:08:25.039Z,85.74
2023-03-05T21:10:51.596Z,86.16
2023-03-05T21:13:18.157Z,85.71
2023-03-05T21:15:44.628Z,86.33
2023-03-05T21:18:11.080Z,85.95
2023-03-05T21:20:37.484Z,85.87
2023-03-05T21:23:03.946Z,85.88
2023-03-05T21:25:32.206Z,85.22
2023-03-05T21:28:06.458Z,85.61
2023-03-05T21:30:35.784Z,85.94
2023-03-05T21:33:07.236Z,85.37
2023-03-05T21:35:34.768Z,84.42
2023-03-05T21:38:02.592Z,84.49
2023-03-05T21:40:29.370Z,84.78
2023-03-05T21:42:55.994Z,84.93
2023-03-05T21:45:25.350Z,84.12
2023-03-05T21:47:52.759Z,83.91
2023-03-05T21:50:23.740Z,83.44
2023-03-05T21:52:50.264Z,83.39
2023-03-05T21:55:19.815Z,83.32
2023-03-05T21:57:46.453Z,82.98
2023-03-05T22:00:13.445Z,83.17
2023-03-05T22:02:41.349Z,83.49
2023-03-05T22:05:12.524Z,83.88
2023-03-05T22:07:39.714Z,83.70
2023-03-05T22:10:06.871Z,83.83
2023-03-05T22:13:06.802Z,84.09
2023-03-05T22:15:33.795Z,83.94
2023-03-05T22:18:00.435Z,84.13
2023-03-05T22:20:26.829Z,84.00
2023-03-05T22:22:53.182Z,83.64
2023-03-05T22:25:19.668Z,83.30
2023-03-05T22:27:46.014Z,83.89
2023-03-05T22:30:13.019Z,83.94
2023-03-05T22:32:39.491Z,83.61
2023-03-05T22:35:07.579Z,83.83
2023-03-05T22:37:33.962Z,83.79
2023-03-05T22:40:00.404Z,84.14
2023-03-05T22:42:26.958Z,84.22
2023-03-05T22:44:57.676Z,84.44
2023-03-05T22:47:25.375Z,84.66
2023-03-05T22:49:51.821Z,84.80
2023-03-05T22:52:18.396Z,85.43
2023-03-05T22:54:44.846Z,84.94
2023-03-05T22:57:11.485Z,84.80
2023-03-05T22:59:37.826Z,84.84
2023-03-05T23:02:04.407Z,84.80
2023-03-05T23:04:59.989Z,85.04
2023-03-05T23:07:32.818Z,84.75
2023-03-05T23:10:06.527Z,84.10
2023-03-05T23:12:35.508Z,84.55
2023-03-05T23:15:04.771Z,85.00
2023-03-05T23:17:31.164Z,85.10
2023-03-05T23:19:57.543Z,85.06
2023-03-05T23:22:23.889Z,85.99
2023-03-05T23:24:50.263Z,86.28
2023-03-05T23:27:20.237Z,86.29
2023-03-05T23:30:21.950Z,86.50
2023-03-05T23:32:53.122Z,87.17
2023-03-05T23:35:29.325Z,87.20
2023-03-05T23:37:57.588Z,87.13
2023-03-05T23:40:30.548Z,87.00
2023-03-05T23:42:57.496Z,87.63
2023-03-05T23:45:24.868Z,88.19
2023-03-05T23:47:52.903Z,88.04
2023-03-05T23:50:25.631Z,87.86
2023-03-05T23:52:54.255Z,88.21
2023-03-05T23:55:24.330Z,88.11
2023-03-05T23:57:51.394Z,88.61
